Time;durP1;ratioP1;P1;durP2;ratioP2;P2;SDS_P1;SDS_P2;PMS_P1;PMS_P2;Temp;Humidity;BMP_temperature;BMP_pressure;BME280_temperature;BME280_humidity;BME280_pressure;Samples;Min_cycle;Max_cycle;Signal;HPM_P1;HPM_P2
2022/07/02 05:38:23;;;;;;;7.40;4.78;;;;;;;23.50;31.02;100566.84;5047005;28;20419;-83
2022/07/02 05:40:50;;;;;;;7.85;4.60;;;;;;;23.38;31.64;100570.00;5046587;28;20092;-83
2022/07/02 05:43:17;;;;;;;10.80;5.57;;;;;;;23.55;31.81;100563.13;5046884;28;20057;-84
2022/07/02 05:45:44;;;;;;;6.63;4.35;;;;;;;23.49;30.66;100554.47;5048576;28;20062;-81
2022/07/02 05:48:16;;;;;;;10.90;4.57;;;;;;;23.43;30.88;100567.16;5047404;28;20077;-87
2022/07/02 05:50:43;;;;;;;7.93;4.45;;;;;;;23.20;30.49;100544.91;5046838;28;20505;-83
2022/07/02 05:53:10;;;;;;;7.38;4.15;;;;;;;23.28;30.41;100549.97;5045671;28;20144;-84
2022/07/02 05:55:37;;;;;;;8.40;4.50;;;;;;;23.44;30.14;100553.75;5045942;28;20513;-83
2022/07/02 05:58:05;;;;;;;5.43;4.20;;;;;;;23.43;30.57;100559.16;5046901;28;20572;-83
2022/07/02 06:00:32;;;;;;;6.18;4.25;;;;;;;23.43;30.38;100553.84;5046427;28;20086;-82
2022/07/02 06:03:00;;;;;;;9.52;4.18;;;;;;;23.38;30.45;100532.69;5044528;28;20506;-83
2022/07/02 06:08:13;;;;;;;10.40;5.57;;;;;;;23.38;30.41;100526.47;5046614;28;20391;-84
2022/07/02 06:10:40;;;;;;;5.43;3.92;;;;;;;23.47;29.59;100560.78;5046796;28;20494;-84
2022/07/02 06:13:07;;;;;;;6.53;4.00;;;;;;;23.24;29.28;100548.34;5047061;28;20049;-83
2022/07/02 06:15:34;;;;;;;7.20;4.30;;;;;;;23.29;29.37;100557.03;5047568;28;20076;-83
2022/07/02 06:18:01;;;;;;;4.80;3.80;;;;;;;23.21;28.98;100525.34;5048222;28;20057;-84
2022/07/02 06:20:29;;;;;;;6.57;4.10;;;;;;;23.39;28.67;100558.41;5045304;28;20060;-83
2022/07/02 06:22:56;;;;;;;5.60;3.55;;;;;;;23.25;28.72;100523.41;5046993;28;20537;-83
2022/07/02 06:25:23;;;;;;;5.78;4.18;;;;;;;23.21;29.27;100541.34;5047759;28;20049;-83
2022/07/02 06:27:50;;;;;;;8.25;4.53;;;;;;;23.19;28.95;100539.63;5047213;28;20048;-83
2022/07/02 06:30:18;;;;;;;7.43;4.63;;;;;;;23.16;28.92;100519.31;5046645;28;20057;-83
2022/07/02 06:32:48;;;;;;;5.32;4.22;;;;;;;23.31;28.67;100539.19;5045060;28;20466;-83
2022/07/02 06:35:16;;;;;;;4.25;3.60;;;;;;;22.86;29.17;100532.81;5046019;28;20111;-83
2022/07/02 06:37:43;;;;;;;5.70;3.97;;;;;;;22.70;28.92;100543.16;5040181;28;20085;-86
2022/07/02 06:40:10;;;;;;;5.35;4.05;;;;;;;22.80;29.15;100545.50;5032358;28;20398;-86
2022/07/02 06:42:37;;;;;;;5.78;3.75;;;;;;;22.90;29.07;100530.91;5032456;28;20647;-86
2022/07/02 06:45:05;;;;;;;6.45;3.92;;;;;;;22.89;28.69;100521.22;5032875;28;20281;-85
2022/07/02 06:47:32;;;;;;;5.80;3.90;;;;;;;22.87;28.69;100515.06;5032985;28;20060;-85
2022/07/02 06:50:00;;;;;;;6.88;4.20;;;;;;;22.94;28.98;100526.38;5033612;28;20070;-84
2022/07/02 06:52:29;;;;;;;7.70;3.90;;;;;;;22.96;28.68;100530.69;5032628;28;20053;-83
2022/07/02 06:54:57;;;;;;;8.50;4.45;;;;;;;23.03;28.99;100508.25;5031956;28;20542;-82
2022/07/02 06:57:25;;;;;;;6.05;3.92;;;;;;;23.16;28.71;100524.63;5030292;28;20080;-85
2022/07/02 06:59:53;;;;;;;5.00;3.80;;;;;;;23.14;28.71;100520.31;5032779;28;20164;-83
2022/07/02 07:02:21;;;;;;;9.32;4.30;;;;;;;23.04;28.98;100507.34;5031912;28;20098;-85
2022/07/02 07:04:48;;;;;;;8.07;4.50;;;;;;;23.08;28.08;100500.97;5030946;28;20057;-85
2022/07/02 07:07:17;;;;;;;9.13;4.25;;;;;;;23.03;28.18;100512.72;5031288;28;20453;-85
2022/07/02 07:09:44;;;;;;;7.47;3.92;;;;;;;23.09;28.37;100496.50;5032114;28;20057;-86
2022/07/02 07:12:13;;;;;;;;;;;;;;;23.07;28.51;100509.88;5032366;28;20053;-84
2022/07/02 07:14:40;;;;;;;5.60;3.70;;;;;;;22.79;28.54;100486.03;5031071;28;19925;-87
2022/07/02 07:17:08;;;;;;;7.68;3.70;;;;;;;23.04;28.58;100510.00;5067126;28;20057;-84
2022/07/02 07:19:35;;;;;;;6.85;4.10;;;;;;;23.03;28.24;100502.06;5032653;28;20053;-85
2022/07/02 07:22:03;;;;;;;6.45;3.92;;;;;;;23.03;27.76;100521.56;5035100;28;20054;-88
2022/07/02 07:24:30;;;;;;;6.40;3.85;;;;;;;22.92;27.94;100512.22;5034633;28;20463;-85
2022/07/02 07:27:00;;;;;;;7.25;3.97;;;;;;;22.83;28.30;100501.00;5034336;28;20049;-87
2022/07/02 07:29:28;;;;;;;5.10;3.92;;;;;;;23.08;28.40;100500.06;5033622;28;20049;-85
2022/07/02 07:31:55;;;;;;;8.15;4.03;;;;;;;23.35;28.18;100511.47;5034572;28;20620;-85
2022/07/02 07:34:22;;;;;;;5.10;4.20;;;;;;;23.31;28.32;100518.72;5033269;28;20144;-84
2022/07/02 07:36:51;;;;;;;8.43;4.43;;;;;;;23.38;28.16;100502.47;5032825;28;20129;-81
2022/07/02 07:39:18;;;;;;;9.68;4.68;;;;;;;23.35;27.76;100484.81;5031767;28;20063;-83
2022/07/02 07:41:45;;;;;;;7.60;4.15;;;;;;;23.56;27.72;100509.75;5031474;28;20053;-83
2022/07/02 07:44:12;;;;;;;5.20;4.07;;;;;;;23.60;27.31;100498.03;5030691;28;20106;-82
2022/07/02 07:46:39;;;;;;;8.55;4.00;;;;;;;23.27;27.52;100454.94;5034688;28;20059;-84
2022/07/02 07:49:06;;;;;;;6.22;4.20;;;;;;;23.59;27.59;100474.09;5065066;28;20079;-83
2022/07/02 07:51:34;;;;;;;8.13;4.68;;;;;;;23.80;27.22;100515.06;5033485;28;20085;-83
2022/07/02 07:54:01;;;;;;;13.07;4.22;;;;;;;23.62;27.33;100501.53;5034450;28;20081;-84
2022/07/02 07:56:28;;;;;;;8.10;3.90;;;;;;;23.64;27.40;100510.31;5035014;28;20055;-82
2022/07/02 07:58:56;;;;;;;7.93;4.68;;;;;;;23.63;27.27;100495.25;5035807;28;20132;-83
2022/07/02 08:01:22;;;;;;;5.55;3.70;;;;;;;23.53;27.44;100496.53;5030819;28;20057;-82
2022/07/02 08:03:49;;;;;;;4.57;3.70;;;;;;;23.58;27.44;100499.91;5033875;28;20144;-81
2022/07/02 08:06:17;;;;;;;6.43;4.10;;;;;;;23.67;27.22;100496.00;5035588;28;20053;-83
2022/07/02 08:08:45;;;;;;;11.60;5.30;;;;;;;23.65;27.54;100496.03;5033274;28;20049;-84
2022/07/02 08:11:12;;;;;;;13.00;6.20;;;;;;;23.84;27.61;100485.53;5031030;28;20099;-83
2022/07/02 08:13:39;;;;;;;9.38;4.78;;;;;;;24.00;27.31;100487.53;5031413;28;20136;-83
2022/07/02 08:16:06;;;;;;;6.45;4.22;;;;;;;23.92;27.05;100478.06;5032178;28;20156;-85
2022/07/02 08:18:33;;;;;;;6.80;4.30;;;;;;;23.96;27.27;100477.94;5025009;28;20068;-85
2022/07/02 08:21:02;;;;;;;5.40;4.50;;;;;;;24.05;27.19;100472.22;5015749;28;20054;-85
2022/07/02 08:23:29;;;;;;;6.97;3.80;;;;;;;23.82;27.23;100484.72;5012135;28;20054;-82
2022/07/02 08:25:56;;;;;;;10.05;4.45;;;;;;;23.39;28.05;100491.78;5012181;28;20080;-86
2022/07/02 08:28:24;;;;;;;7.97;4.30;;;;;;;23.21;28.18;100445.41;5013292;28;20575;-86
2022/07/02 08:30:51;;;;;;;6.78;3.80;;;;;;;23.43;27.96;100457.88;5013069;28;20121;-82
2022/07/02 08:33:19;;;;;;;6.75;4.03;;;;;;;23.37;27.50;100474.09;5012008;28;20077;-83
2022/07/02 08:35:46;;;;;;;5.63;4.13;;;;;;;23.40;27.55;100493.50;5011580;28;20097;-82
2022/07/02 08:38:14;;;;;;;6.13;3.70;;;;;;;23.38;27.65;100452.72;5011455;28;20062;-82
2022/07/02 08:40:45;;;;;;;7.07;4.70;;;;;;;23.62;27.17;100464.19;5011549;28;20057;-84
2022/07/02 08:43:14;;;;;;;4.72;3.65;;;;;;;23.61;27.26;100464.25;5011646;28;20053;-83
2022/07/02 08:45:42;;;;;;;8.85;4.05;;;;;;;23.36;27.71;100454.59;5010448;28;20069;-84
2022/07/02 08:48:20;;;;;;;6.30;3.85;;;;;;;23.13;27.95;100443.97;5011334;28;20077;-83
2022/07/02 08:50:50;;;;;;;5.93;4.03;;;;;;;23.09;27.66;100373.94;5012318;28;20103;-87
2022/07/02 08:53:20;;;;;;;6.50;4.05;;;;;;;23.55;27.64;100428.03;5012277;28;20053;-86
2022/07/02 08:55:50;;;;;;;6.78;3.67;;;;;;;23.72;27.03;100429.97;5013911;28;20153;-85
2022/07/02 08:58:17;;;;;;;5.50;4.05;;;;;;;23.77;27.12;100432.50;5014583;28;20045;-85
2022/07/02 09:00:46;;;;;;;4.78;4.00;;;;;;;23.98;26.91;100441.38;5015572;28;20514;-84
2022/07/02 09:03:14;;;;;;;6.20;3.58;;;;;;;23.90;26.58;100447.06;5013068;28;20105;-84
2022/07/02 09:05:42;;;;;;;6.70;3.83;;;;;;;23.76;27.46;100442.28;5012939;28;20087;-86
2022/07/02 09:08:15;;;;;;;7.22;4.15;;;;;;;23.76;27.31;100406.75;5012273;28;20053;-86
2022/07/02 09:10:42;;;;;;;8.32;4.25;;;;;;;24.03;27.30;100420.72;5011666;28;20421;-84
2022/07/02 09:13:12;;;;;;;7.60;3.60;;;;;;;24.26;27.01;100431.25;5012523;28;20054;-89
2022/07/02 09:15:39;;;;;;;6.13;4.30;;;;;;;24.36;26.92;100454.88;5011398;28;20053;-88
2022/07/02 09:18:07;;;;;;;8.27;4.50;;;;;;;24.25;26.81;100442.84;5010530;28;20057;-82
2022/07/02 09:20:34;;;;;;;6.85;3.72;;;;;;;24.15;26.91;100417.50;5010353;28;20058;-83
2022/07/02 09:23:08;;;;;;;6.47;4.20;;;;;;;24.25;26.60;100417.97;5042377;28;20559;-90
2022/07/02 09:25:35;;;;;;;8.70;4.65;;;;;;;24.23;26.68;100411.84;5010085;28;20064;-86
2022/07/02 09:28:05;;;;;;;6.10;4.25;;;;;;;24.21;26.39;100422.56;5010457;28;20050;-85
2022/07/02 09:30:36;;;;;;;6.25;4.57;;;;;;;24.24;26.41;100422.44;5011667;28;20508;-87
2022/07/02 09:33:31;;;;;;;7.18;4.55;;;;;;;24.14;26.05;100398.91;5012856;28;20395;-85
2022/07/02 09:36:00;;;;;;;5.72;3.90;;;;;;;24.18;25.94;100419.16;5013464;28;20071;-86
2022/07/02 09:38:28;;;;;;;7.82;4.70;;;;;;;24.14;26.04;100406.91;5011537;28;20079;-85
2022/07/02 09:41:01;;;;;;;6.60;4.28;;;;;;;24.12;26.29;100405.16;5012274;28;20054;-83
2022/07/02 09:43:33;;;;;;;8.60;4.10;;;;;;;24.18;25.72;100401.38;5011079;28;20387;-86
2022/07/02 09:46:01;;;;;;;7.63;4.05;;;;;;;24.08;26.00;100395.56;5010750;28;20054;-88
2022/07/02 09:48:28;;;;;;;5.15;3.88;;;;;;;24.05;25.64;100386.84;5010461;28;20151;-86
2022/07/02 09:51:04;;;;;;;8.55;5.07;;;;;;;24.04;26.18;100401.09;5011319;28;20054;-89
2022/07/02 09:53:32;;;;;;;6.45;3.88;;;;;;;24.02;26.38;100393.16;5011135;28;20050;-86
2022/07/02 09:56:03;;;;;;;8.13;3.50;;;;;;;24.06;25.96;100380.56;5010778;28;20506;-89
2022/07/02 09:58:30;;;;;;;5.53;4.05;;;;;;;24.11;25.99;100387.44;5011650;28;20065;-86
2022/07/02 10:01:02;;;;;;;6.70;3.95;;;;;;;24.09;25.56;100383.97;5016746;28;20575;-85
2022/07/02 10:03:29;;;;;;;5.53;3.70;;;;;;;23.90;25.08;100367.91;5017792;28;20062;-88
2022/07/02 10:05:56;;;;;;;10.40;3.63;;;;;;;24.03;25.61;100383.38;5019030;28;20053;-86
2022/07/02 10:08:23;;;;;;;6.93;4.00;;;;;;;24.08;25.33;100378.69;5016154;28;20074;-84
2022/07/02 10:10:51;;;;;;;5.18;3.60;;;;;;;24.21;25.11;100379.00;5014629;28;20053;-86
2022/07/02 10:13:18;;;;;;;7.00;3.33;;;;;;;24.37;25.31;100363.16;5014391;28;20050;-85
2022/07/02 10:15:59;;;;;;;8.50;3.92;;;;;;;24.44;25.39;100367.28;5023144;28;20053;-86
2022/07/02 10:18:29;;;;;;;5.88;4.13;;;;;;;24.20;25.00;100346.13;5054705;28;20053;-85
2022/07/02 10:20:57;;;;;;;6.22;4.03;;;;;;;24.37;25.16;100357.81;5022594;28;20679;-84
2022/07/02 10:23:24;;;;;;;7.07;4.15;;;;;;;24.35;25.14;100363.25;5018892;28;20061;-86
2022/07/02 10:25:53;;;;;;;6.55;3.80;;;;;;;24.35;25.14;100355.22;5016936;28;20195;-83
2022/07/02 10:28:20;;;;;;;5.30;3.58;;;;;;;24.36;25.33;100348.94;5018824;28;20106;-85
2022/07/02 10:30:46;;;;;;;9.38;4.35;;;;;;;24.38;25.22;100341.72;5017638;28;20119;-85
2022/07/02 10:33:35;;;;;;;6.18;4.05;;;;;;;24.50;24.90;100333.19;5018433;28;20065;-86
2022/07/02 10:36:03;;;;;;;8.57;4.22;;;;;;;24.60;24.79;100324.72;5018977;28;20054;-86
2022/07/02 10:38:38;;;;;;;6.93;4.00;;;;;;;24.46;24.73;100298.66;5022420;28;20058;-89
2022/07/02 10:41:07;;;;;;;12.75;6.28;;;;;;;24.67;24.93;100311.03;5020944;28;20080;-86
2022/07/02 10:43:38;;;;;;;6.43;3.85;;;;;;;24.68;24.40;100322.56;5014513;28;20057;-85
2022/07/02 10:46:10;;;;;;;6.35;3.70;;;;;;;24.47;24.69;100300.38;5014385;28;20046;-87
2022/07/02 10:48:48;;;;;;;;;;;;;;;24.42;24.94;100315.75;5014473;28;20085;-84
2022/07/02 10:51:35;;;;;;;7.45;4.07;;;;;;;24.51;24.46;100312.69;5014601;28;19973;-85
2022/07/02 10:54:05;;;;;;;8.80;3.72;;;;;;;24.51;24.03;100294.00;5019468;28;20073;-83
2022/07/02 10:56:51;;;;;;;4.35;3.22;;;;;;;24.55;23.84;100306.25;5034080;28;20025;-84
2022/07/02 10:59:36;;;;;;;6.00;3.40;;;;;;;24.72;23.13;100298.31;5037034;28;20058;-84
2022/07/02 11:02:08;;;;;;;5.22;3.13;;;;;;;24.80;22.95;100308.63;5035933;28;20097;-85
2022/07/02 11:04:36;;;;;;;4.20;3.60;;;;;;;24.79;23.77;100290.00;5015918;28;20075;-82
2022/07/02 11:07:11;;;;;;;6.65;3.70;;;;;;;24.80;23.99;100289.94;5016197;28;20054;-87
2022/07/02 11:09:49;;;;;;;5.07;3.25;;;;;;;24.74;23.77;100274.19;5018819;28;20083;-84
2022/07/02 11:12:42;;;;;;;6.82;4.15;;;;;;;24.93;24.18;100295.53;5013767;28;20071;-85
2022/07/02 11:15:24;;;;;;;6.60;3.60;;;;;;;24.94;24.18;100294.59;5013152;28;20075;-84
2022/07/02 11:17:52;;;;;;;11.50;3.58;;;;;;;24.90;23.85;100298.34;5013254;28;20069;-84
2022/07/02 11:20:25;;;;;;;6.70;3.50;;;;;;;24.93;23.49;100298.22;5012907;28;20054;-86
2022/07/02 11:22:53;;;;;;;5.85;3.55;;;;;;;24.89;23.45;100304.66;5012959;28;20058;-84
2022/07/02 11:25:21;;;;;;;6.55;3.50;;;;;;;24.91;23.78;100305.44;5012885;28;20134;-84
2022/07/02 11:27:59;;;;;;;4.60;3.40;;;;;;;24.79;23.83;100276.63;5012809;28;20476;-85
2022/07/02 11:30:33;;;;;;;4.97;3.50;;;;;;;24.94;23.89;100286.56;5013178;28;20092;-84
2022/07/02 11:33:01;;;;;;;6.03;3.70;;;;;;;25.01;23.76;100285.31;5012715;28;20065;-83
2022/07/02 11:35:28;;;;;;;4.93;3.35;;;;;;;25.08;23.22;100283.19;5012251;28;20426;-85
2022/07/02 11:37:57;;;;;;;9.48;3.50;;;;;;;24.90;23.72;100275.16;5013062;28;20427;-84
2022/07/02 11:40:26;;;;;;;3.78;3.10;;;;;;;24.91;23.74;100284.06;5045604;28;20475;-86
2022/07/02 11:42:54;;;;;;;5.63;3.23;;;;;;;24.86;23.87;100283.41;5012686;28;20115;-86
2022/07/02 11:45:21;;;;;;;5.25;3.85;;;;;;;24.81;23.72;100270.28;5012007;28;20430;-86
2022/07/02 11:47:50;;;;;;;7.00;3.95;;;;;;;24.75;23.54;100251.88;5012031;28;20471;-85
2022/07/02 11:50:35;;;;;;;10.63;4.25;;;;;;;24.74;23.71;100276.88;5012413;28;20060;-86
2022/07/02 11:53:05;;;;;;;9.60;4.60;;;;;;;24.91;23.96;100281.38;5012170;28;20567;-85
2022/07/02 11:55:33;;;;;;;11.68;4.50;;;;;;;24.98;24.17;100279.28;5012415;28;20053;-87
2022/07/02 11:58:00;;;;;;;5.85;3.30;;;;;;;25.06;23.86;100274.38;5011682;28;20589;-87
2022/07/02 12:00:33;;;;;;;12.88;3.85;;;;;;;24.99;23.70;100273.84;5011893;28;20503;-85
2022/07/02 12:03:11;;;;;;;8.32;3.30;;;;;;;24.88;24.18;100277.03;5010988;28;20471;-85
2022/07/02 12:05:52;;;;;;;6.85;3.47;;;;;;;24.83;23.74;100268.41;5012649;28;20066;-86
2022/07/02 12:08:20;;;;;;;4.80;3.08;;;;;;;24.73;23.72;100253.75;5044345;28;20125;-86
2022/07/02 12:10:47;;;;;;;6.63;3.33;;;;;;;24.80;23.77;100236.50;5012060;28;20468;-86
2022/07/02 12:13:14;;;;;;;7.03;3.83;;;;;;;24.85;24.20;100226.44;5012883;28;20518;-85
2022/07/02 12:15:46;;;;;;;7.75;3.50;;;;;;;24.82;24.66;100234.59;5013509;28;20562;-86
2022/07/02 12:18:18;;;;;;;7.85;3.72;;;;;;;24.82;24.66;100247.09;5012741;28;20081;-85
2022/07/02 12:20:46;;;;;;;6.13;3.50;;;;;;;24.79;25.23;100250.78;5010466;28;20057;-85
2022/07/02 12:23:16;;;;;;;4.55;3.15;;;;;;;24.83;25.04;100260.38;5012048;28;20045;-84
2022/07/02 12:25:48;;;;;;;7.03;3.80;;;;;;;24.85;25.14;100242.47;5011652;28;20164;-84
2022/07/02 12:31:17;;;;;;;5.70;3.53;;;;;;;25.12;24.69;100242.91;4968262;28;20065;-84
2022/07/02 12:33:55;;;;;;;6.32;3.60;;;;;;;25.22;23.98;100250.47;5011520;28;20058;-86
2022/07/02 12:36:23;;;;;;;8.43;3.60;;;;;;;25.27;24.38;100256.44;5010122;28;20388;-85
2022/07/02 12:38:50;;;;;;;5.28;3.42;;;;;;;25.23;24.58;100255.75;5012099;28;20050;-85
2022/07/02 12:41:17;;;;;;;7.13;3.80;;;;;;;25.20;24.55;100233.66;5012014;28;20111;-87
2022/07/02 12:43:54;;;;;;;10.00;6.53;;;;;;;25.29;24.78;100238.50;5011789;28;20058;-87
2022/07/02 12:46:21;;;;;;;6.30;3.88;;;;;;;25.40;24.54;100235.28;5013412;28;20102;-85
2022/07/02 12:48:48;;;;;;;8.18;3.83;;;;;;;25.40;24.35;100240.63;5012033;28;20491;-85
2022/07/02 12:51:15;;;;;;;3.67;3.33;;;;;;;25.41;24.42;100243.22;5011337;28;20108;-84
2022/07/02 12:53:56;;;;;;;6.57;3.45;;;;;;;25.37;24.25;100251.50;5010093;28;20081;-84
2022/07/02 12:56:24;;;;;;;6.43;3.78;;;;;;;25.32;23.67;100247.25;5010758;28;20057;-86
2022/07/02 12:58:51;;;;;;;5.55;3.80;;;;;;;25.25;24.06;100244.94;5010160;28;20058;-84
2022/07/02 13:01:18;;;;;;;5.28;3.38;;;;;;;25.29;24.46;100239.38;5011079;28;20150;-84
2022/07/02 13:03:45;;;;;;;6.95;3.58;;;;;;;25.42;24.01;100239.59;5011741;28;20054;-85
2022/07/02 13:06:12;;;;;;;4.75;3.55;;;;;;;25.48;24.09;100238.41;5011130;28;20496;-85
2022/07/02 13:08:39;;;;;;;3.78;3.33;;;;;;;25.51;24.17;100227.53;5011643;28;20155;-83
2022/07/02 13:11:06;;;;;;;6.25;3.83;;;;;;;25.55;24.38;100239.81;5014377;28;20050;-82
2022/07/02 13:13:33;;;;;;;5.10;3.35;;;;;;;25.52;24.32;100237.31;5014758;28;20057;-84
2022/07/02 13:16:03;;;;;;;;;;;;;;;25.32;24.59;100233.03;5044362;28;20056;-81
2022/07/02 13:18:40;;;;;;;4.30;3.40;;;;;;;25.22;24.28;100197.88;5013271;28;19925;-84
2022/07/02 13:21:08;;;;;;;7.63;3.33;;;;;;;25.50;24.05;100236.53;5012308;28;20092;-83
2022/07/02 13:23:35;;;;;;;4.90;3.40;;;;;;;25.54;23.33;100222.91;5012141;28;20123;-83
2022/07/02 13:26:02;;;;;;;4.15;2.97;;;;;;;25.41;23.54;100208.47;5011297;28;20058;-84
2022/07/02 13:28:29;;;;;;;6.00;3.47;;;;;;;25.44;23.89;100226.16;5009508;28;20156;-83
2022/07/02 13:30:56;;;;;;;5.20;3.53;;;;;;;25.38;23.99;100205.94;5011325;28;20046;-82
2022/07/02 13:33:23;;;;;;;7.95;3.65;;;;;;;25.31;24.26;100199.19;5009446;28;20209;-84
2022/07/02 13:35:50;;;;;;;7.18;3.67;;;;;;;25.44;24.23;100194.91;5010440;28;20054;-82
2022/07/02 13:38:17;;;;;;;6.10;3.80;;;;;;;25.51;24.12;100195.44;5013311;28;20134;-84
2022/07/02 13:40:45;;;;;;;4.75;3.30;;;;;;;25.53;24.26;100194.44;5011214;28;20050;-81
2022/07/02 13:43:11;;;;;;;8.73;3.20;;;;;;;25.49;24.13;100192.00;5009182;28;20153;-82
2022/07/02 13:45:39;;;;;;;6.57;3.20;;;;;;;25.64;23.83;100191.19;5009849;28;20050;-84
2022/07/02 13:48:06;;;;;;;9.07;5.05;;;;;;;25.75;23.92;100193.28;5012238;28;20045;-84
2022/07/02 13:50:33;;;;;;;4.95;3.75;;;;;;;25.75;24.33;100175.41;5020878;28;20085;-84
2022/07/02 13:53:00;;;;;;;6.40;4.00;;;;;;;25.64;24.29;100160.88;5022748;28;20061;-84
2022/07/02 13:55:29;;;;;;;;;;;;;;;25.62;24.64;100182.41;5022517;28;20053;-81
2022/07/02 13:57:56;;;;;;;4.93;3.58;;;;;;;25.77;24.40;100179.81;5032629;28;19925;-84
2022/07/02 14:00:23;;;;;;;5.68;3.72;;;;;;;25.78;24.13;100170.84;5034300;28;20053;-83
2022/07/02 14:02:52;;;;;;;6.47;3.70;;;;;;;25.79;24.19;100172.56;5033793;28;20498;-82
2022/07/02 14:05:19;;;;;;;6.90;3.93;;;;;;;25.80;24.00;100175.16;5024172;28;20050;-82
2022/07/02 14:07:46;;;;;;;4.47;3.60;;;;;;;25.80;24.52;100158.25;5030423;28;20380;-85
2022/07/02 14:10:15;;;;;;;6.95;3.50;;;;;;;25.80;24.83;100166.28;5032606;28;20046;-84
2022/07/02 14:12:42;;;;;;;5.40;3.58;;;;;;;25.80;24.69;100164.47;5033372;28;20053;-84
2022/07/02 14:15:10;;;;;;;7.38;4.43;;;;;;;25.87;24.88;100156.97;5033053;28;20144;-84
2022/07/02 14:17:37;;;;;;;5.97;3.30;;;;;;;25.88;24.29;100162.25;5079015;27;20053;-84
2022/07/02 14:20:05;;;;;;;6.32;3.60;;;;;;;25.77;24.16;100159.28;5087655;27;20047;-83
2022/07/02 14:22:53;;;;;;;8.10;3.83;;;;;;;25.63;24.23;100124.41;5087257;27;20075;-83
2022/07/02 14:25:20;;;;;;;6.05;3.30;;;;;;;25.73;23.73;100133.66;5081420;27;20049;-82
2022/07/02 14:27:49;;;;;;;5.25;3.20;;;;;;;25.84;24.12;100141.09;5097123;27;20041;-84
2022/07/02 14:30:17;;;;;;;6.80;4.20;;;;;;;25.72;24.18;100113.19;5079513;27;20445;-84
2022/07/02 14:32:45;;;;;;;7.85;4.22;;;;;;;25.88;23.70;100139.97;5080889;27;20144;-80
2022/07/02 14:35:12;;;;;;;7.47;4.57;;;;;;;25.90;24.25;100130.09;5074997;27;20056;-84
2022/07/02 14:37:39;;;;;;;5.53;3.70;;;;;;;25.83;24.39;100131.31;5082519;27;20082;-82
2022/07/02 14:40:06;;;;;;;5.15;3.53;;;;;;;25.82;24.88;100122.44;5086614;27;20050;-82
2022/07/02 14:42:33;;;;;;;4.38;3.40;;;;;;;25.81;24.48;100127.88;5094390;27;20081;-82
2022/07/02 14:45:00;;;;;;;6.75;3.50;;;;;;;25.71;24.87;100117.69;5077986;27;20237;-82
2022/07/02 14:47:27;;;;;;;7.32;3.83;;;;;;;25.74;24.97;100116.66;5083339;27;20104;-82
2022/07/02 14:49:55;;;;;;;7.93;3.63;;;;;;;25.75;25.32;100118.38;5083719;27;20413;-83
2022/07/02 14:52:22;;;;;;;7.95;3.60;;;;;;;25.68;25.24;100098.25;5077899;27;20052;-83
2022/07/02 14:54:49;;;;;;;6.65;3.70;;;;;;;25.79;25.38;100116.38;5032991;28;20057;-82
2022/07/02 14:57:16;;;;;;;4.00;3.45;;;;;;;25.70;25.57;100113.25;5035601;28;20057;-82
2022/07/02 14:59:43;;;;;;;9.02;3.95;;;;;;;25.71;25.30;100112.34;5033861;28;20049;-82
2022/07/02 15:02:12;;;;;;;5.68;3.30;;;;;;;25.73;25.64;100113.13;5032597;28;20102;-84
2022/07/02 15:04:40;;;;;;;5.43;3.72;;;;;;;25.66;25.79;100093.00;5031988;28;20160;-82
2022/07/02 15:07:07;;;;;;;10.90;5.60;;;;;;;25.82;25.49;100108.19;5046080;27;20533;-86
2022/07/02 15:09:34;;;;;;;13.13;4.80;;;;;;;25.77;25.94;100084.38;5089332;27;20135;-82
2022/07/02 15:12:03;;;;;;;7.53;4.15;;;;;;;25.71;25.91;100088.25;5063229;27;20041;-82
2022/07/02 15:17:16;;;;;;;7.25;4.50;;;;;;;25.74;26.02;100108.63;5074637;27;20058;-82
2022/07/02 15:19:46;;;;;;;9.70;5.10;;;;;;;25.77;25.90;100097.75;5082321;27;20478;-81
2022/07/02 15:25:02;;;;;;;7.72;4.53;;;;;;;25.59;26.53;100078.22;5136508;27;20427;-81
2022/07/02 15:27:31;;;;;;;8.48;4.13;;;;;;;25.74;26.29;100093.41;5107126;27;20245;-84
2022/07/02 15:29:58;;;;;;;6.93;4.10;;;;;;;25.59;26.67;100069.34;5091595;27;20077;-82
2022/07/02 15:32:26;;;;;;;7.65;4.50;;;;;;;25.77;26.60;100096.88;5087501;27;20502;-82
2022/07/02 15:34:55;;;;;;;6.22;4.15;;;;;;;25.76;26.53;100101.38;5014751;28;20050;-82
2022/07/02 15:37:22;;;;;;;5.88;3.90;;;;;;;25.63;26.45;100087.81;5089584;27;20051;-81
2022/07/02 15:39:50;;;;;;;17.00;5.00;;;;;;;25.70;26.84;100105.25;5089279;27;20043;-83
2022/07/02 15:42:22;;;;;;;7.82;4.35;;;;;;;25.55;26.50;100103.41;5083592;27;20064;-81
2022/07/02 15:44:53;;;;;;;7.85;4.78;;;;;;;25.48;26.97;100077.97;5085242;27;20049;-81
2022/07/02 15:47:21;;;;;;;8.68;4.80;;;;;;;25.75;26.77;100099.66;5078224;27;20079;-80
2022/07/02 15:49:50;;;;;;;5.20;4.07;;;;;;;25.83;26.72;100093.88;5085331;27;20134;-80
2022/07/02 15:52:36;;;;;;;10.48;6.28;;;;;;;25.72;26.96;100084.63;5103670;27;20503;-83
2022/07/02 15:55:11;;;;;;;11.20;5.35;;;;;;;25.72;27.44;100092.63;5080332;27;20055;-81
2022/07/02 15:57:49;;;;;;;9.10;4.30;;;;;;;25.45;27.71;100062.97;5079781;27;20076;-85
2022/07/02 16:00:28;;;;;;;8.98;4.35;;;;;;;25.44;27.78;100092.44;5042992;27;20039;-84
2022/07/02 16:02:58;;;;;;;9.18;4.68;;;;;;;25.27;28.32;100091.53;5072481;27;20056;-81
2022/07/02 16:05:25;;;;;;;10.10;4.78;;;;;;;25.30;28.47;100093.22;5032765;28;20050;-83
2022/07/02 16:07:53;;;;;;;9.60;4.90;;;;;;;25.21;28.21;100077.66;5032486;28;20057;-80
2022/07/02 16:10:25;;;;;;;10.85;4.00;;;;;;;25.27;28.33;100086.19;5031684;28;20098;-82
2022/07/02 16:12:52;;;;;;;9.82;4.93;;;;;;;25.10;28.65;100080.88;5033589;28;20041;-81
2022/07/02 16:15:19;;;;;;;10.27;5.20;;;;;;;24.98;28.90;100081.53;5034317;28;20045;-84
2022/07/02 16:17:47;;;;;;;10.57;5.55;;;;;;;24.92;29.06;100067.53;5033134;28;20049;-83
2022/07/02 16:20:18;;;;;;;7.32;4.97;;;;;;;25.01;29.39;100079.56;5032295;28;20053;-82
2022/07/02 16:22:47;;;;;;;7.00;4.70;;;;;;;24.95;29.18;100071.84;5032250;28;20073;-83
2022/07/02 16:25:14;;;;;;;14.00;6.35;;;;;;;24.84;29.59;100052.88;5032830;28;20056;-83
2022/07/02 16:27:44;;;;;;;9.38;4.88;;;;;;;24.86;29.53;100061.66;5030486;28;20061;-81
2022/07/02 16:30:14;;;;;;;10.18;4.95;;;;;;;24.83;29.59;100069.84;5032697;28;20498;-86
2022/07/02 16:32:50;;;;;;;8.48;4.72;;;;;;;24.90;29.90;100080.13;5036710;28;20080;-82
2022/07/02 16:35:26;;;;;;;10.60;4.60;;;;;;;24.78;30.09;100070.09;5041928;28;20108;-81
2022/07/02 16:37:54;;;;;;;12.35;6.00;;;;;;;24.70;30.20;100072.28;5054600;27;20104;-83
2022/07/02 16:40:22;;;;;;;13.40;5.93;;;;;;;24.57;30.22;100072.06;5055042;27;20045;-81
2022/07/02 16:42:50;;;;;;;11.25;4.95;;;;;;;24.60;30.65;100063.03;5050896;27;20053;-83
2022/07/02 16:45:30;;;;;;;8.93;4.57;;;;;;;24.67;30.52;100068.00;5037776;28;20506;-82
2022/07/02 16:47:58;;;;;;;11.05;6.10;;;;;;;24.68;30.51;100067.03;5017668;28;20053;-84
2022/07/02 16:50:29;;;;;;;12.82;6.60;;;;;;;24.53;31.03;100041.97;5034172;28;20448;-82
2022/07/02 16:52:59;;;;;;;14.05;5.72;;;;;;;24.64;30.62;100065.47;5030785;28;20102;-82
2022/07/02 16:55:26;;;;;;;10.90;6.00;;;;;;;24.65;30.96;100061.84;5031640;28;20525;-85
2022/07/02 16:57:55;;;;;;;13.40;6.82;;;;;;;24.48;30.73;100035.13;5030165;28;20407;-87
2022/07/02 17:00:25;;;;;;;17.13;6.78;;;;;;;24.52;30.88;100061.63;5031619;28;20049;-86
2022/07/02 17:02:54;;;;;;;13.90;5.90;;;;;;;24.52;31.20;100060.75;5031019;28;20053;-87
2022/07/02 17:05:22;;;;;;;13.95;6.22;;;;;;;24.47;31.34;100052.06;5030780;28;20433;-86
2022/07/02 17:07:49;;;;;;;10.00;6.25;;;;;;;24.33;31.35;100048.31;5031539;28;20072;-82
2022/07/02 17:13:03;;;;;;;8.88;5.05;;;;;;;24.26;31.45;100052.25;5030083;28;20081;-82
2022/07/02 17:15:31;;;;;;;11.07;4.80;;;;;;;24.20;31.92;100057.88;5030517;28;20072;-83
2022/07/02 17:17:58;;;;;;;9.65;4.80;;;;;;;24.14;31.88;100050.19;5030288;28;20049;-81
2022/07/02 17:20:26;;;;;;;10.93;5.88;;;;;;;23.94;32.11;100021.84;5029342;28;20045;-82
2022/07/02 17:22:59;;;;;;;13.65;6.50;;;;;;;24.11;31.91;100045.88;5031007;28;20087;-86
2022/07/02 17:25:26;;;;;;;11.93;5.88;;;;;;;24.22;31.86;100040.00;5031181;28;20086;-83